Time;durP1;ratioP1;P1;durP2;ratioP2;P2;SDS_P1;SDS_P2;PMS_P1;PMS_P2;Temp;Humidity;BMP_temperature;BMP_pressure;BME280_temperature;BME280_humidity;BME280_pressure;Samples;Min_cycle;Max_cycle;Signal;HPM_P1;HPM_P2
2022/05/01 00:00:55;;;;;;;4.37;3.12;;;9.80;79.50;;;;;;616240;231;26578;-66
2022/05/01 00:05:59;;;;;;;3.92;3.10;;;9.80;80.00;;;;;;613412;230;26978;-67
2022/05/01 00:08:26;;;;;;;4.18;2.92;;;9.80;79.30;;;;;;613594;231;26643;-67
2022/05/01 00:10:54;;;;;;;2.70;2.50;;;9.70;79.50;;;;;;625789;230;26659;-67
2022/05/01 00:13:22;;;;;;;3.22;2.95;;;9.70;79.30;;;;;;614628;230;27277;-67
2022/05/01 00:15:49;;;;;;;3.05;2.83;;;9.70;79.80;;;;;;617549;231;26621;-67
2022/05/01 00:18:16;;;;;;;5.60;2.92;;;9.60;79.70;;;;;;618473;228;26993;-67
2022/05/01 00:20:43;;;;;;;3.97;2.72;;;9.60;79.60;;;;;;615594;231;26559;-67
2022/05/01 00:23:10;;;;;;;3.78;3.00;;;9.60;80.00;;;;;;620113;231;26830;-67
2022/05/01 00:25:40;;;;;;;2.85;2.62;;;9.60;78.90;;;;;;621460;230;26589;-67
2022/05/01 00:28:06;;;;;;;2.40;2.20;;;9.60;80.40;;;;;;614405;231;26597;-67
2022/05/01 00:30:34;;;;;;;3.67;2.60;;;9.60;78.50;;;;;;621029;231;26658;-67
2022/05/01 00:38:07;;;;;;;4.28;2.75;;;9.50;78.70;;;;;;617337;231;26657;-67
2022/05/01 00:40:35;;;;;;;2.95;2.60;;;9.40;79.40;;;;;;624001;228;26564;-67
2022/05/01 00:43:02;;;;;;;2.83;2.50;;;9.40;79.50;;;;;;616668;230;26801;-67
2022/05/01 00:45:30;;;;;;;2.97;2.67;;;9.40;78.80;;;;;;616177;231;26594;-67
2022/05/01 00:47:57;;;;;;;3.95;3.03;;;9.50;78.50;;;;;;614471;231;26932;-67
2022/05/01 00:50:24;;;;;;;3.33;2.80;;;9.40;80.70;;;;;;616398;232;26620;-67
2022/05/01 00:52:51;;;;;;;3.53;2.85;;;9.40;79.40;;;;;;620217;231;26560;-67
2022/05/01 00:55:20;;;;;;;2.28;2.12;;;9.30;79.20;;;;;;620032;231;26618;-68
2022/05/01 00:57:48;;;;;;;3.00;2.70;;;9.30;79.20;;;;;;616246;233;26599;-67
2022/05/01 01:00:16;;;;;;;3.70;2.50;;;9.20;81.80;;;;;;615660;230;26612;-67
2022/05/01 01:02:43;;;;;;;2.97;2.67;;;9.20;81.20;;;;;;613128;230;26567;-67
2022/05/01 01:05:11;;;;;;;2.75;2.53;;;9.20;79.20;;;;;;617581;231;26801;-67
2022/05/01 01:07:38;;;;;;;2.95;2.58;;;9.20;80.80;;;;;;615471;230;26596;-67
2022/05/01 01:10:06;;;;;;;4.35;2.65;;;9.10;79.50;;;;;;614709;230;26598;-67
2022/05/01 01:15:09;;;;;;;2.60;2.40;;;9.00;81.50;;;;;;617387;230;26536;-67
2022/05/01 01:17:37;;;;;;;2.40;2.20;;;9.00;81.70;;;;;;613588;231;26553;-67
2022/05/01 01:20:11;;;;;;;2.62;2.42;;;9.00;80.50;;;;;;620024;231;26582;-67
2022/05/01 01:22:37;;;;;;;3.45;2.62;;;8.90;79.70;;;;;;618868;231;26603;-67
2022/05/01 01:25:05;;;;;;;2.60;2.40;;;9.00;80.20;;;;;;612824;231;27090;-67
2022/05/01 01:27:32;;;;;;;2.20;2.10;;;9.00;82.20;;;;;;613699;231;26596;-67
2022/05/01 01:32:32;;;;;;;5.37;2.67;;;8.90;82.00;;;;;;617547;231;26864;-67
2022/05/01 01:35:00;;;;;;;3.08;2.58;;;8.90;79.90;;;;;;617372;231;26557;-67
2022/05/01 01:37:28;;;;;;;2.53;2.33;;;8.90;81.20;;;;;;618303;231;26556;-67
2022/05/01 01:39:56;;;;;;;2.15;2.05;;;8.80;81.60;;;;;;615632;233;26555;-67
2022/05/01 01:42:23;;;;;;;3.50;2.40;;;8.80;81.00;;;;;;615510;233;26794;-67
2022/05/01 01:44:50;;;;;;;2.70;2.22;;;8.80;82.30;;;;;;615523;233;26572;-67
2022/05/01 01:47:17;;;;;;;2.22;2.10;;;8.80;81.50;;;;;;614352;231;26881;-67
2022/05/01 01:49:45;;;;;;;4.03;2.22;;;8.80;80.50;;;;;;613764;231;26613;-67
2022/05/01 01:52:13;;;;;;;2.53;2.33;;;8.70;80.60;;;;;;614815;231;26561;-67
2022/05/01 01:54:41;;;;;;;2.62;2.37;;;8.70;80.50;;;;;;622553;230;26562;-67
2022/05/01 01:57:09;;;;;;;2.95;2.50;;;8.60;80.40;;;;;;614326;231;26831;-67
2022/05/01 01:59:36;;;;;;;2.47;2.20;;;8.70;80.10;;;;;;619957;230;26559;-67
2022/05/01 02:02:03;;;;;;;2.92;2.60;;;8.70;80.80;;;;;;621783;230;26831;-67
2022/05/01 02:04:30;;;;;;;2.30;1.95;;;8.70;79.90;;;;;;619803;230;26650;-67
2022/05/01 02:06:57;;;;;;;2.72;2.50;;;8.70;79.40;;;;;;618009;230;26602;-67
2022/05/01 02:09:25;;;;;;;2.40;2.20;;;8.70;79.70;;;;;;619385;231;26566;-67
2022/05/01 02:11:53;;;;;;;2.72;2.50;;;8.70;80.50;;;;;;614534;231;26583;-67
2022/05/01 02:14:20;;;;;;;2.35;2.15;;;8.70;79.40;;;;;;613839;231;26967;-67
2022/05/01 02:16:48;;;;;;;3.62;2.35;;;8.70;79.80;;;;;;615878;232;26604;-67
2022/05/01 02:19:14;;;;;;;3.10;2.80;;;8.60;79.20;;;;;;617481;230;26564;-67
2022/05/01 02:21:42;;;;;;;2.42;2.22;;;8.60;79.70;;;;;;620559;231;26562;-67
2022/05/01 02:24:12;;;;;;;2.45;2.25;;;8.60;79.70;;;;;;617835;231;26635;-67
2022/05/01 02:26:38;;;;;;;1.98;1.87;;;8.60;79.10;;;;;;620542;230;26562;-67
2022/05/01 02:29:09;;;;;;;2.95;2.30;;;8.50;79.10;;;;;;614459;233;26565;-67
2022/05/01 02:31:34;;;;;;;2.45;2.25;;;8.50;80.10;;;;;;618762;231;26576;-65
2022/05/01 02:34:01;;;;;;;3.12;2.17;;;8.50;79.50;;;;;;619724;231;26801;-68
2022/05/01 02:36:29;;;;;;;7.35;2.75;;;8.50;79.60;;;;;;622417;231;26564;-68
2022/05/01 02:38:57;;;;;;;6.30;2.37;;;8.50;79.70;;;;;;622190;231;26623;-66
2022/05/01 02:41:24;;;;;;;2.50;2.30;;;8.40;80.30;;;;;;621051;231;27378;-65
2022/05/01 02:43:51;;;;;;;5.95;2.50;;;8.40;80.10;;;;;;612488;234;26624;-66
2022/05/01 02:46:18;;;;;;;2.65;2.45;;;8.30;80.80;;;;;;612461;234;26882;-66
2022/05/01 02:48:46;;;;;;;4.72;2.60;;;8.30;80.90;;;;;;615613;231;26570;-66
2022/05/01 02:51:13;;;;;;;4.35;2.55;;;8.20;80.80;;;;;;615666;234;26537;-66
2022/05/01 02:53:40;;;;;;;4.10;2.37;;;8.20;81.00;;;;;;620745;231;26640;-65
2022/05/01 02:56:09;;;;;;;2.97;2.28;;;8.10;81.70;;;;;;618388;231;26862;-65
2022/05/01 02:58:36;;;;;;;2.40;2.20;;;8.10;81.70;;;;;;615774;231;26785;-65
2022/05/01 03:01:04;;;;;;;2.47;2.28;;;8.00;82.60;;;;;;617595;231;26609;-65
2022/05/01 03:03:31;;;;;;;2.17;2.03;;;7.90;83.00;;;;;;617995;229;26657;-65
2022/05/01 03:06:00;;;;;;;2.80;2.53;;;7.90;83.40;;;;;;615763;231;26615;-65
2022/05/01 03:08:27;;;;;;;3.42;2.10;;;7.90;83.30;;;;;;616165;230;26792;-65
2022/05/01 03:10:54;;;;;;;4.90;2.22;;;7.90;83.70;;;;;;613711;233;26524;-65
2022/05/01 03:13:22;;;;;;;3.00;2.45;;;7.90;84.20;;;;;;613639;231;26825;-65
2022/05/01 03:15:49;;;;;;;4.20;2.20;;;7.80;84.40;;;;;;613114;235;26608;-65
2022/05/01 03:23:22;;;;;;;2.55;2.35;;;7.90;85.10;;;;;;615664;231;26607;-65
2022/05/01 03:25:50;;;;;;;2.35;2.15;;;7.90;85.20;;;;;;612731;235;26568;-65
2022/05/01 03:28:17;;;;;;;2.70;2.50;;;7.90;84.80;;;;;;612772;231;26844;-66
2022/05/01 03:30:45;;;;;;;4.87;2.33;;;8.00;84.80;;;;;;612804;233;26650;-66
2022/05/01 03:33:12;;;;;;;2.08;1.90;;;8.00;84.70;;;;;;621115;230;27235;-66
2022/05/01 03:35:40;;;;;;;3.25;2.25;;;8.00;84.40;;;;;;614318;230;26577;-66
2022/05/01 03:38:07;;;;;;;2.25;2.05;;;8.00;84.90;;;;;;612878;233;27457;-66
2022/05/01 03:40:35;;;;;;;3.15;2.20;;;8.00;84.50;;;;;;612691;234;26573;-66
2022/05/01 03:43:02;;;;;;;2.55;2.00;;;8.00;84.70;;;;;;617325;231;26818;-66
2022/05/01 03:45:30;;;;;;;2.00;1.85;;;8.00;85.30;;;;;;613013;231;26552;-66
2022/05/01 03:47:58;;;;;;;2.55;2.08;;;8.00;85.70;;;;;;616134;231;26649;-66
2022/05/01 03:50:26;;;;;;;2.85;1.92;;;8.00;86.60;;;;;;616648;231;26587;-66
2022/05/01 03:52:53;;;;;;;2.15;1.95;;;8.00;85.90;;;;;;614940;231;26839;-66
2022/05/01 03:55:20;;;;;;;5.62;2.25;;;8.00;86.10;;;;;;614608;231;26556;-66
2022/05/01 03:57:47;;;;;;;2.53;2.20;;;8.00;85.80;;;;;;619087;231;26848;-66
2022/05/01 04:00:21;;;;;;;2.20;1.80;;;8.00;86.00;;;;;;614735;231;26643;-66
2022/05/01 04:02:49;;;;;;;2.80;1.83;;;8.10;85.50;;;;;;615168;231;26580;-66
2022/05/01 04:05:17;;;;;;;2.83;2.12;;;8.10;85.70;;;;;;614314;231;26578;-66
2022/05/01 04:07:44;;;;;;;2.20;2.00;;;8.10;85.70;;;;;;616665;231;26621;-66
2022/05/01 04:10:11;;;;;;;3.45;2.03;;;8.10;85.60;;;;;;621566;231;26607;-66
2022/05/01 04:12:38;;;;;;;2.97;2.00;;;8.00;86.00;;;;;;622526;231;26844;-67
2022/05/01 04:15:08;;;;;;;3.53;2.12;;;8.00;86.60;;;;;;624273;228;26537;-67
2022/05/01 04:17:38;;;;;;;2.17;1.95;;;8.00;86.20;;;;;;616446;229;27030;-67
2022/05/01 04:20:03;;;;;;;4.00;2.10;;;8.00;87.70;;;;;;616849;232;26630;-67
2022/05/01 04:22:30;;;;;;;2.50;2.30;;;8.00;87.80;;;;;;619394;231;26561;-67
2022/05/01 04:24:58;;;;;;;3.10;2.08;;;8.10;87.10;;;;;;616235;230;26587;-66
2022/05/01 04:27:25;;;;;;;2.00;1.90;;;8.10;85.30;;;;;;614493;230;26881;-66
2022/05/01 04:29:52;;;;;;;2.35;2.08;;;8.10;87.90;;;;;;614510;231;26563;-66
2022/05/01 04:32:21;;;;;;;2.95;2.00;;;8.20;86.30;;;;;;616935;231;26602;-67
2022/05/01 04:34:47;;;;;;;2.42;1.77;;;8.30;85.80;;;;;;618315;231;26620;-66
2022/05/01 04:37:15;;;;;;;2.42;1.90;;;8.20;85.70;;;;;;615871;231;26634;-66
2022/05/01 04:39:42;;;;;;;1.70;1.60;;;8.30;84.40;;;;;;615519;233;26583;-66
2022/05/01 04:42:09;;;;;;;2.60;1.87;;;8.30;84.00;;;;;;615898;232;26845;-66
2022/05/01 04:44:36;;;;;;;2.03;1.87;;;8.40;86.00;;;;;;615876;233;26613;-66
2022/05/01 04:47:04;;;;;;;2.62;2.17;;;8.40;83.40;;;;;;616679;231;26618;-66
2022/05/01 04:49:32;;;;;;;2.97;2.15;;;8.40;83.50;;;;;;614296;230;26559;-67
2022/05/01 04:52:00;;;;;;;4.05;2.45;;;8.50;83.90;;;;;;613535;234;26563;-66
2022/05/01 04:54:26;;;;;;;2.08;1.90;;;8.50;83.90;;;;;;616330;231;26824;-67
2022/05/01 04:59:26;;;;;;;2.55;2.20;;;8.70;83.80;;;;;;616062;231;26533;-66
2022/05/01 05:01:54;;;;;;;2.58;2.37;;;8.90;82.70;;;;;;614866;231;26556;-66
2022/05/01 05:04:21;;;;;;;2.22;2.10;;;8.90;82.50;;;;;;617564;231;27273;-66
2022/05/01 05:06:52;;;;;;;3.08;2.20;;;8.90;84.80;;;;;;621177;231;26648;-66
2022/05/01 05:11:49;;;;;;;2.42;2.22;;;9.00;82.10;;;;;;612527;234;26568;-67
2022/05/01 05:14:16;;;;;;;3.90;2.00;;;9.10;83.90;;;;;;614100;234;26845;-66
2022/05/01 05:16:44;;;;;;;2.67;1.98;;;9.10;82.10;;;;;;614942;231;26559;-66
2022/05/01 05:19:11;;;;;;;2.20;2.00;;;9.20;80.80;;;;;;620246;230;27273;-66
2022/05/01 05:21:38;;;;;;;2.15;2.00;;;9.30;81.80;;;;;;618817;231;26580;-67
2022/05/01 05:24:05;;;;;;;3.70;2.03;;;9.50;80.60;;;;;;613842;231;26585;-67
2022/05/01 05:26:34;;;;;;;2.20;2.10;;;9.70;79.40;;;;;;618892;231;26611;-66
2022/05/01 05:29:01;;;;;;;2.25;2.00;;;9.70;79.30;;;;;;615307;230;27289;-66
2022/05/01 05:31:29;;;;;;;2.45;1.95;;;9.70;79.70;;;;;;620402;230;26553;-67
2022/05/01 05:33:56;;;;;;;2.30;2.10;;;9.80;77.70;;;;;;620131;231;26813;-67
2022/05/01 05:36:23;;;;;;;1.92;1.83;;;9.90;77.10;;;;;;623604;230;26617;-67
2022/05/01 05:38:50;;;;;;;2.17;1.95;;;10.10;76.60;;;;;;621600;231;26616;-67
2022/05/01 05:41:18;;;;;;;2.00;1.90;;;10.40;74.40;;;;;;615856;230;26634;-67
2022/05/01 05:43:46;;;;;;;1.98;1.87;;;10.60;74.30;;;;;;621009;230;26627;-67
2022/05/01 05:46:13;;;;;;;2.20;2.00;;;10.60;74.20;;;;;;612898;231;26573;-66
2022/05/01 05:48:41;;;;;;;2.67;2.00;;;10.70;72.60;;;;;;615272;232;26664;-66
2022/05/01 05:51:08;;;;;;;2.95;1.80;;;10.90;73.40;;;;;;616332;231;26842;-67
2022/05/01 05:53:35;;;;;;;1.77;1.67;;;11.10;73.20;;;;;;620794;231;26582;-68
2022/05/01 05:56:02;;;;;;;7.62;2.30;;;11.30;72.40;;;;;;612993;230;26933;-67
2022/05/01 05:58:29;;;;;;;2.12;1.90;;;11.50;69.60;;;;;;619452;231;26619;-67
2022/05/01 06:00:56;;;;;;;1.67;1.58;;;11.60;68.70;;;;;;620982;230;26808;-67
2022/05/01 06:03:24;;;;;;;2.10;1.90;;;11.90;70.00;;;;;;614497;230;26561;-67
2022/05/01 06:05:51;;;;;;;1.73;1.50;;;12.10;70.90;;;;;;615842;231;26934;-67
2022/05/01 06:08:18;;;;;;;2.25;1.90;;;12.30;69.40;;;;;;618504;231;26558;-67
2022/05/01 06:10:45;;;;;;;1.95;1.85;;;12.40;67.40;;;;;;615591;231;26782;-67
2022/05/01 06:13:13;;;;;;;2.45;1.83;;;12.60;67.90;;;;;;612518;231;26654;-68
2022/05/01 06:15:43;;;;;;;1.70;1.40;;;12.50;65.30;;;;;;614985;230;26568;-66
2022/05/01 06:18:10;;;;;;;2.53;2.05;;;12.50;64.20;;;;;;612384;234;26635;-67
2022/05/01 06:20:37;;;;;;;1.95;1.73;;;12.50;65.50;;;;;;612389;234;26639;-66
2022/05/01 06:23:04;;;;;;;2.40;2.25;;;12.50;65.40;;;;;;615382;231;26564;-67
2022/05/01 06:25:32;;;;;;;1.95;1.83;;;12.60;64.70;;;;;;617617;231;26573;-67
2022/05/01 06:27:59;;;;;;;1.85;1.73;;;12.70;64.10;;;;;;617983;231;26877;-67
2022/05/01 06:30:26;;;;;;;2.37;1.62;;;12.80;64.20;;;;;;612826;231;26642;-66
2022/05/01 06:32:53;;;;;;;1.87;1.77;;;12.80;66.10;;;;;;620572;231;26832;-66
2022/05/01 06:35:20;;;;;;;1.85;1.60;;;12.60;66.60;;;;;;616475;231;26578;-66
2022/05/01 06:37:47;;;;;;;2.83;1.80;;;12.70;65.80;;;;;;615290;231;27258;-66
2022/05/01 06:40:15;;;;;;;2.75;1.60;;;12.70;66.80;;;;;;620072;230;26596;-67
2022/05/01 06:42:42;;;;;;;1.73;1.62;;;12.80;70.10;;;;;;615069;230;26846;-66
2022/05/01 06:45:10;;;;;;;1.60;1.48;;;13.00;67.20;;;;;;617688;231;26568;-66
2022/05/01 06:47:37;;;;;;;2.28;1.37;;;13.00;67.10;;;;;;615076;231;26594;-66
2022/05/01 06:50:05;;;;;;;1.58;1.48;;;13.00;64.60;;;;;;613079;233;26615;-67
2022/05/01 06:52:32;;;;;;;3.45;1.80;;;13.00;65.50;;;;;;613279;233;26612;-68
2022/05/01 06:55:00;;;;;;;3.85;2.10;;;13.00;66.10;;;;;;620428;230;26907;-68
2022/05/01 06:57:27;;;;;;;1.70;1.60;;;13.20;67.10;;;;;;619856;230;26596;-69
2022/05/01 06:59:55;;;;;;;1.87;1.67;;;13.40;66.90;;;;;;614446;230;26806;-69
2022/05/01 07:02:21;;;;;;;2.92;1.30;;;13.50;66.90;;;;;;615270;231;26534;-69
2022/05/01 07:04:50;;;;;;;1.62;1.52;;;13.60;68.30;;;;;;619134;230;26567;-69
2022/05/01 07:07:18;;;;;;;1.37;1.30;;;13.70;66.70;;;;;;615763;231;26609;-69
2022/05/01 07:09:45;;;;;;;1.35;1.10;;;13.70;66.20;;;;;;614756;233;26647;-68
2022/05/01 07:12:12;;;;;;;2.72;1.55;;;13.80;66.20;;;;;;616007;233;26613;-68
2022/05/01 07:14:39;;;;;;;1.73;1.42;;;13.80;67.70;;;;;;613866;233;26800;-69
2022/05/01 07:17:07;;;;;;;1.20;1.20;;;14.00;65.10;;;;;;615550;233;26600;-69
2022/05/01 07:19:34;;;;;;;2.03;1.50;;;14.20;65.20;;;;;;619493;230;27305;-69
2022/05/01 07:22:01;;;;;;;1.70;1.48;;;14.50;65.30;;;;;;623563;230;26562;-70
2022/05/01 07:24:28;;;;;;;2.17;1.42;;;14.90;64.80;;;;;;623661;230;27257;-71
2022/05/01 07:26:55;;;;;;;2.03;1.52;;;15.10;60.40;;;;;;616432;231;26568;-72
2022/05/01 07:29:23;;;;;;;1.48;1.23;;;15.10;64.50;;;;;;615587;233;27158;-72
2022/05/01 07:31:50;;;;;;;1.52;1.33;;;15.50;62.30;;;;;;615263;231;26564;-72
2022/05/01 07:34:19;;;;;;;2.78;1.50;;;15.80;61.90;;;;;;622453;231;26602;-71
2022/05/01 07:36:46;;;;;;;1.40;1.30;;;15.70;62.00;;;;;;619777;231;26553;-70
2022/05/01 07:39:13;;;;;;;1.40;1.33;;;15.90;60.30;;;;;;612449;228;26872;-70
2022/05/01 07:41:41;;;;;;;1.42;1.30;;;16.00;59.80;;;;;;613514;234;26583;-71
2022/05/01 07:44:08;;;;;;;1.40;1.30;;;16.10;58.00;;;;;;617485;231;27174;-71
2022/05/01 07:46:35;;;;;;;1.48;1.37;;;16.10;58.60;;;;;;614423;233;26557;-71
2022/05/01 07:49:03;;;;;;;2.37;1.70;;;16.00;57.60;;;;;;618120;231;26591;-71
2022/05/01 07:51:31;;;;;;;1.40;1.30;;;15.90;59.30;;;;;;616980;231;26625;-71
2022/05/01 07:53:59;;;;;;;1.58;1.30;;;16.00;59.60;;;;;;615545;231;26614;-72
2022/05/01 07:56:27;;;;;;;2.25;1.75;;;16.00;59.80;;;;;;613295;232;26550;-72
2022/05/01 07:58:54;;;;;;;1.50;1.40;;;16.30;62.30;;;;;;616217;230;26587;-74
2022/05/01 08:01:22;;;;;;;1.85;1.52;;;17.00;58.60;;;;;;620129;231;27277;-73
2022/05/01 08:06:22;;;;;;;1.85;1.55;;;17.30;58.60;;;;;;613955;231;26612;-74
2022/05/01 08:08:50;;;;;;;2.70;1.40;;;17.20;56.00;;;;;;615397;231;26666;-74
2022/05/01 08:11:18;;;;;;;2.83;1.55;;;17.10;54.60;;;;;;620257;231;26570;-74
2022/05/01 08:13:46;;;;;;;5.37;1.50;;;17.10;55.00;;;;;;618097;230;26802;-73
2022/05/01 08:16:14;;;;;;;2.90;1.37;;;17.30;57.30;;;;;;615328;231;26858;-73
2022/05/01 08:21:17;;;;;;;3.12;1.80;;;17.50;57.30;;;;;;614214;231;26568;-74
2022/05/01 08:23:42;;;;;;;2.50;1.65;;;17.80;57.20;;;;;;617479;230;26813;-73
2022/05/01 08:26:10;;;;;;;1.50;1.40;;;17.80;55.70;;;;;;614557;233;26536;-73
2022/05/01 08:28:36;;;;;;;2.95;1.50;;;18.10;57.00;;;;;;615970;232;26946;-72
2022/05/01 08:31:04;;;;;;;1.52;1.42;;;18.30;54.30;;;;;;612522;231;26560;-72
2022/05/01 08:33:31;;;;;;;2.20;1.98;;;18.30;55.30;;;;;;614227;231;26651;-74
2022/05/01 08:35:59;;;;;;;2.97;1.80;;;18.00;53.30;;;;;;614694;227;26849;-73
2022/05/01 08:38:26;;;;;;;2.10;1.85;;;17.60;54.00;;;;;;616352;231;27298;-74
2022/05/01 08:40:53;;;;;;;1.87;1.30;;;17.30;55.80;;;;;;617680;230;26606;-73
2022/05/01 08:43:20;;;;;;;4.78;2.03;;;17.20;57.00;;;;;;616435;231;26868;-73
2022/05/01 08:46:13;;;;;;;6.97;2.05;;;17.30;54.60;;;;;;616438;231;26542;-71
2022/05/01 08:48:40;;;;;;;2.67;1.92;;;16.70;53.90;;;;;;608990;230;26836;-73
2022/05/01 08:51:07;;;;;;;2.45;1.40;;;16.40;55.30;;;;;;619624;230;26602;-73
2022/05/01 08:53:34;;;;;;;1.30;1.20;;;16.40;56.00;;;;;;614674;231;26781;-73
2022/05/01 08:56:02;;;;;;;6.57;1.90;;;16.20;54.60;;;;;;615530;231;26632;-71
2022/05/01 08:58:31;;;;;;;2.83;1.80;;;15.80;55.00;;;;;;617041;231;26597;-71
2022/05/01 09:00:59;;;;;;;4.03;1.70;;;15.80;55.00;;;;;;613150;231;26538;-71
2022/05/01 09:03:27;;;;;;;2.17;1.52;;;15.70;55.30;;;;;;620692;229;26630;-71
2022/05/01 09:05:54;;;;;;;4.55;1.60;;;15.90;55.80;;;;;;615437;233;26616;-70
2022/05/01 09:08:22;;;;;;;2.30;1.50;;;16.10;56.80;;;;;;619369;231;26588;-69
2022/05/01 09:10:48;;;;;;;1.98;1.75;;;16.20;55.30;;;;;;621816;231;26750;-69
2022/05/01 09:13:16;;;;;;;4.90;1.67;;;16.00;54.80;;;;;;614121;230;26602;-69
2022/05/01 09:15:44;;;;;;;2.12;1.87;;;15.60;54.70;;;;;;617602;231;26553;-69
2022/05/01 09:18:12;;;;;;;3.50;1.62;;;15.60;54.70;;;;;;621661;231;26627;-69
2022/05/01 09:20:39;;;;;;;4.53;1.83;;;15.60;54.80;;;;;;615949;231;26583;-70
2022/05/01 09:23:06;;;;;;;4.75;1.80;;;15.80;54.50;;;;;;611987;231;26853;-70
2022/05/01 09:25:33;;;;;;;1.52;1.42;;;15.70;54.60;;;;;;612634;234;26586;-70
2022/05/01 09:28:02;;;;;;;4.35;1.73;;;16.10;54.40;;;;;;614640;233;26624;-72
2022/05/01 09:30:34;;;;;;;3.03;1.77;;;16.10;54.40;;;;;;611086;230;26556;-71
2022/05/01 09:33:01;;;;;;;5.32;1.90;;;16.20;54.50;;;;;;612520;228;26830;-71
2022/05/01 09:35:32;;;;;;;2.12;1.70;;;16.30;54.30;;;;;;612659;231;26584;-71
2022/05/01 09:38:22;;;;;;;5.20;1.90;;;16.30;54.30;;;;;;613966;230;26958;-72
2022/05/01 09:40:50;;;;;;;2.50;1.92;;;16.50;54.00;;;;;;612400;235;26839;-73
2022/05/01 09:43:30;;;;;;;2.85;1.83;;;16.50;53.60;;;;;;615280;234;26568;-74
2022/05/01 09:46:12;;;;;;;2.08;1.87;;;16.50;53.60;;;;;;617499;231;26576;-74
2022/05/01 09:48:39;;;;;;;3.08;1.73;;;16.60;53.80;;;;;;615338;231;26610;-74
2022/05/01 09:51:15;;;;;;;4.15;1.83;;;16.50;53.20;;;;;;615049;231;26816;-75
2022/05/01 09:53:43;;;;;;;2.85;1.60;;;16.10;53.30;;;;;;619612;231;26641;-73
2022/05/01 09:56:10;;;;;;;2.53;1.85;;;16.00;53.30;;;;;;615497;233;26529;-74
2022/05/01 09:58:40;;;;;;;3.65;1.65;;;15.80;53.50;;;;;;613401;234;26592;-75
2022/05/01 10:01:07;;;;;;;4.55;1.98;;;15.70;53.30;;;;;;612277;233;26576;-74
2022/05/01 10:03:34;;;;;;;3.15;1.62;;;15.80;53.30;;;;;;614960;233;26587;-74
2022/05/01 10:06:02;;;;;;;2.50;1.70;;;15.80;53.10;;;;;;612434;233;26681;-74
2022/05/01 10:08:30;;;;;;;5.43;1.90;;;15.80;52.60;;;;;;612362;234;26650;-73
2022/05/01 10:10:58;;;;;;;3.12;1.80;;;15.90;52.70;;;;;;614839;233;26595;-72
2022/05/01 10:13:26;;;;;;;1.60;1.50;;;15.80;52.10;;;;;;613041;227;26874;-73
2022/05/01 10:15:53;;;;;;;1.52;1.42;;;15.80;52.20;;;;;;613967;233;26858;-73
2022/05/01 10:18:21;;;;;;;1.75;1.65;;;15.80;51.60;;;;;;616600;232;26647;-73
2022/05/01 10:20:48;;;;;;;70.00;16.87;;;15.70;51.20;;;;;;614114;231;26788;-74
2022/05/01 10:23:16;;;;;;;112.32;24.25;;;15.80;51.40;;;;;;613925;226;26539;-75
2022/05/01 10:26:07;;;;;;;435.08;51.72;;;16.10;51.70;;;;;;621246;230;26602;-74
2022/05/01 10:28:53;;;;;;;120.87;26.50;;;16.10;51.70;;;;;;612019;233;26634;-76
2022/05/01 10:34:15;;;;;;;71.82;17.75;;;16.10;51.90;;;;;;614096;230;26904;-75
2022/05/01 10:36:45;;;;;;;64.57;14.98;;;15.90;51.30;;;;;;613964;233;26838;-76
2022/05/01 10:39:15;;;;;;;47.72;12.50;;;15.80;51.80;;;;;;612894;231;26584;-75
2022/05/01 10:41:43;;;;;;;36.40;10.90;;;15.80;51.90;;;;;;620066;230;26569;-77
2022/05/01 10:44:22;;;;;;;40.80;10.15;;;15.70;51.80;;;;;;612806;231;26613;-78
2022/05/01 10:46:52;;;;;;;42.47;10.07;;;15.90;51.30;;;;;;612676;235;26559;-77
2022/05/01 10:49:31;;;;;;;34.03;10.10;;;15.90;51.40;;;;;;612517;234;26798;-75
2022/05/01 10:51:59;;;;;;;44.38;10.73;;;16.00;51.10;;;;;;612426;235;26622;-77
2022/05/01 10:54:30;;;;;;;43.05;9.55;;;16.10;51.20;;;;;;610242;235;26579;-77
2022/05/01 10:57:06;;;;;;;30.23;9.52;;;16.00;51.00;;;;;;614982;231;26601;-77
2022/05/01 10:59:35;;;;;;;34.45;9.40;;;16.00;51.00;;;;;;616041;231;26844;-76
2022/05/01 11:02:03;;;;;;;27.05;8.68;;;16.00;51.00;;;;;;612192;234;26608;-77
2022/05/01 11:04:30;;;;;;;24.45;7.55;;;15.90;51.30;;;;;;612707;233;27301;-77
2022/05/01 11:06:57;;;;;;;17.62;5.93;;;15.90;51.10;;;;;;615528;232;26852;-76
2022/05/01 11:09:24;;;;;;;17.67;5.12;;;15.90;51.00;;;;;;613955;228;26556;-76
2022/05/01 11:11:53;;;;;;;17.10;5.90;;;16.00;50.80;;;;;;614602;234;26867;-75
2022/05/01 11:14:41;;;;;;;13.55;6.03;;;16.10;51.20;;;;;;612746;233;26891;-75
2022/05/01 11:17:09;;;;;;;13.27;4.72;;;16.20;51.20;;;;;;613232;234;26584;-74
2022/05/01 11:19:45;;;;;;;8.77;3.33;;;16.40;51.00;;;;;;613729;233;26820;-74
2022/05/01 11:22:13;;;;;;;7.95;2.67;;;16.30;50.80;;;;;;619551;231;26887;-75
2022/05/01 11:24:43;;;;;;;5.85;2.25;;;16.60;50.40;;;;;;613300;231;26593;-74
2022/05/01 11:27:14;;;;;;;3.47;2.03;;;16.50;50.50;;;;;;615755;231;26640;-75
2022/05/01 11:30:02;;;;;;;6.45;2.35;;;16.50;50.50;;;;;;613479;232;26559;-75
2022/05/01 11:32:29;;;;;;;3.47;2.17;;;16.40;50.90;;;;;;613171;231;26598;-73
2022/05/01 11:34:57;;;;;;;2.50;2.28;;;16.50;51.10;;;;;;611752;234;26571;-75
2022/05/01 11:37:25;;;;;;;4.03;1.85;;;16.40;51.00;;;;;;614572;233;26615;-75
2022/05/01 11:40:10;;;;;;;4.30;2.00;;;16.30;51.10;;;;;;613886;232;26618;-76
2022/05/01 11:42:37;;;;;;;4.30;1.98;;;16.30;51.30;;;;;;615485;231;26627;-74
2022/05/01 11:45:05;;;;;;;6.18;2.62;;;16.30;51.20;;;;;;614576;233;26599;-75
2022/05/01 11:47:33;;;;;;;3.58;2.40;;;16.30;50.60;;;;;;617574;231;26631;-76
2022/05/01 11:50:00;;;;;;;3.58;1.90;;;16.20;50.40;;;;;;614669;231;26803;-74
2022/05/01 11:52:27;;;;;;;5.68;2.50;;;16.30;50.20;;;;;;615355;233;26613;-75
2022/05/01 11:54:55;;;;;;;2.58;2.15;;;16.30;50.70;;;;;;612824;230;26934;-74
2022/05/01 12:02:31;;;;;;;3.10;1.80;;;16.60;49.90;;;;;;615465;232;26573;-73
2022/05/01 12:04:58;;;;;;;5.65;2.45;;;16.60;49.60;;;;;;615554;234;26566;-74
2022/05/01 12:07:26;;;;;;;2.58;2.10;;;16.90;50.50;;;;;;615576;234;26590;-73
2022/05/01 12:09:55;;;;;;;4.85;2.45;;;16.90;50.40;;;;;;615588;233;26588;-75
2022/05/01 12:12:21;;;;;;;5.43;2.33;;;17.20;49.70;;;;;;615533;233;26574;-74
2022/05/01 12:14:48;;;;;;;5.57;2.60;;;17.20;49.10;;;;;;621209;231;26876;-75
2022/05/01 12:17:16;;;;;;;2.55;2.00;;;17.20;49.10;;;;;;621604;231;26605;-74
2022/05/01 12:19:44;;;;;;;2.22;2.03;;;17.10;49.40;;;;;;621638;231;26835;-74
2022/05/01 12:22:12;;;;;;;5.00;2.65;;;17.10;49.80;;;;;;621744;231;26603;-74
2022/05/01 12:24:39;;;;;;;3.78;2.05;;;17.00;50.70;;;;;;622026;231;26591;-75
2022/05/01 12:27:07;;;;;;;3.47;3.17;;;17.00;51.70;;;;;;622008;231;26631;-74
2022/05/01 12:29:35;;;;;;;6.60;4.22;;;17.30;52.30;;;;;;622037;231;26601;-73
2022/05/01 12:32:07;;;;;;;5.85;2.78;;;17.30;50.90;;;;;;622019;231;26580;-75
2022/05/01 12:34:36;;;;;;;5.75;3.83;;;17.20;50.70;;;;;;622013;231;26562;-73
2022/05/01 12:37:05;;;;;;;4.45;2.55;;;17.40;51.30;;;;;;622583;229;26638;-74
2022/05/01 12:39:32;;;;;;;2.10;1.92;;;17.30;51.40;;;;;;622670;231;26626;-75
2022/05/01 12:44:35;;;;;;;2.15;2.05;;;16.80;50.10;;;;;;622530;231;26566;-75
2022/05/01 12:47:03;;;;;;;2.33;2.12;;;16.90;50.50;;;;;;622271;231;26846;-75
2022/05/01 12:49:29;;;;;;;2.22;2.03;;;16.70;50.20;;;;;;622151;231;26563;-74
2022/05/01 12:51:57;;;;;;;2.33;1.98;;;16.60;50.60;;;;;;622214;231;26812;-74
2022/05/01 12:54:25;;;;;;;1.92;1.80;;;16.50;49.90;;;;;;622134;231;26570;-74
2022/05/01 12:56:54;;;;;;;2.55;1.80;;;16.60;50.90;;;;;;621914;231;26576;-74
2022/05/01 12:59:25;;;;;;;3.20;2.45;;;16.40;50.20;;;;;;621902;231;26555;-73
2022/05/01 13:01:52;;;;;;;7.32;2.22;;;16.30;50.90;;;;;;621934;231;26541;-73
2022/05/01 13:04:21;;;;;;;2.58;2.10;;;16.30;51.80;;;;;;621892;230;26550;-74
2022/05/01 13:06:48;;;;;;;2.58;1.80;;;16.30;51.40;;;;;;621987;231;26563;-74
2022/05/01 13:09:16;;;;;;;2.40;2.10;;;16.10;51.70;;;;;;621986;231;26561;-74
2022/05/01 13:11:55;;;;;;;2.42;2.20;;;16.10;51.70;;;;;;621970;231;26569;-74
2022/05/01 13:14:26;;;;;;;2.15;1.73;;;16.30;51.50;;;;;;621554;231;27271;-74
2022/05/01 13:16:53;;;;;;;2.22;2.00;;;16.10;50.80;;;;;;621640;231;26609;-73
2022/05/01 13:19:20;;;;;;;2.85;2.12;;;16.10;50.80;;;;;;621500;231;26608;-74
2022/05/01 13:21:47;;;;;;;3.47;1.95;;;16.10;50.80;;;;;;621666;231;26621;-74
2022/05/01 13:24:15;;;;;;;2.12;1.90;;;16.10;50.60;;;;;;621575;231;26613;-64
2022/05/01 13:26:43;;;;;;;2.45;1.73;;;16.10;50.70;;;;;;621855;231;26588;-64
2022/05/01 13:29:10;;;;;;;2.10;1.70;;;16.00;50.30;;;;;;622022;231;26593;-64
2022/05/01 13:31:38;;;;;;;2.10;1.90;;;16.30;50.80;;;;;;622039;231;26583;-64
2022/05/01 13:34:06;;;;;;;3.00;2.72;;;16.30;50.70;;;;;;621982;231;26596;-64